Time;durP1;ratioP1;P1;durP2;ratioP2;P2;SDS_P1;SDS_P2;PMS_P1;PMS_P2;Temp;Humidity;BMP_temperature;BMP_pressure;BME280_temperature;BME280_humidity;BME280_pressure;Samples;Min_cycle;Max_cycle;Signal;HPM_P1;HPM_P2
2022/07/01 00:00:25;;;;;;;4.63;3.08;;;19.00;93.40;;;;;;5095927;28;20589;-84
2022/07/01 00:02:53;;;;;;;4.30;2.85;;;19.00;93.30;;;;;;5095739;28;20203;-84
2022/07/01 00:05:37;;;;;;;4.65;3.17;;;18.90;94.00;;;;;;5096737;28;20195;-84
2022/07/01 00:08:05;;;;;;;7.00;3.15;;;18.90;94.30;;;;;;5091811;28;20204;-84
2022/07/01 00:10:49;;;;;;;4.45;3.10;;;18.90;94.60;;;;;;5091073;28;20200;-84
2022/07/01 00:13:43;;;;;;;5.30;3.80;;;19.00;94.90;;;;;;5092621;28;20216;-84
2022/07/01 00:16:19;;;;;;;5.32;3.50;;;19.00;95.30;;;;;;5092922;28;20199;-84
2022/07/01 00:18:47;;;;;;;4.47;3.60;;;19.10;95.70;;;;;;5098994;28;20208;-84
2022/07/01 00:21:25;;;;;;;5.53;4.22;;;19.10;95.50;;;;;;5090720;28;20193;-84
2022/07/01 00:23:52;;;;;;;8.07;3.83;;;19.20;95.10;;;;;;5091559;28;20192;-85
2022/07/01 00:26:19;;;;;;;6.43;4.05;;;19.30;94.60;;;;;;5097750;28;20641;-85
2022/07/01 00:28:49;;;;;;;9.43;3.72;;;19.50;93.70;;;;;;5089231;28;20283;-84
2022/07/01 00:31:16;;;;;;;6.97;3.40;;;19.40;93.10;;;;;;5089022;28;20556;-84
2022/07/01 00:33:51;;;;;;;9.63;3.85;;;19.50;92.50;;;;;;5094366;28;20205;-85
2022/07/01 00:36:31;;;;;;;10.38;3.40;;;19.40;92.80;;;;;;5094689;28;20200;-84
2022/07/01 00:39:13;;;;;;;5.80;3.47;;;19.40;92.50;;;;;;5100080;28;20203;-85
2022/07/01 00:41:43;;;;;;;11.65;3.75;;;19.40;92.80;;;;;;5099024;28;20213;-85
2022/07/01 00:44:17;;;;;;;5.72;3.33;;;19.40;92.50;;;;;;5102577;28;20230;-84
2022/07/01 00:47:12;;;;;;;4.13;3.60;;;19.40;92.50;;;;;;5093004;28;20197;-84
2022/07/01 00:49:41;;;;;;;5.47;3.13;;;19.40;92.50;;;;;;5089547;28;20204;-84
2022/07/01 00:52:25;;;;;;;3.72;2.80;;;19.40;92.30;;;;;;5098597;28;20193;-84
2022/07/01 00:54:54;;;;;;;2.60;2.40;;;19.30;91.50;;;;;;5098507;28;20209;-84
2022/07/01 00:57:39;;;;;;;4.07;2.80;;;19.30;91.10;;;;;;5097786;28;20211;-84
2022/07/01 01:00:10;;;;;;;3.10;2.50;;;19.30;90.20;;;;;;5095848;28;20197;-84
2022/07/01 01:02:38;;;;;;;3.78;2.30;;;19.40;90.10;;;;;;5092518;28;20201;-84
2022/07/01 01:05:15;;;;;;;5.78;2.35;;;19.40;88.50;;;;;;5097457;28;20645;-84
2022/07/01 01:07:42;;;;;;;1.98;1.67;;;19.50;86.10;;;;;;5097864;28;20533;-85
2022/07/01 01:10:10;;;;;;;4.82;2.00;;;19.40;85.60;;;;;;5091047;28;20210;-85
2022/07/01 01:12:44;;;;;;;6.30;2.05;;;19.40;85.50;;;;;;5100695;28;20699;-85
2022/07/01 01:15:19;;;;;;;3.20;1.63;;;19.40;84.30;;;;;;5100034;28;20197;-84
2022/07/01 01:17:50;;;;;;;2.13;1.67;;;19.30;82.40;;;;;;5100650;28;20639;-84
2022/07/01 01:20:18;;;;;;;3.72;1.60;;;19.30;81.10;;;;;;5098586;28;20196;-84
2022/07/01 01:22:48;;;;;;;1.80;1.40;;;19.30;81.40;;;;;;5096958;28;20278;-84
2022/07/01 01:25:15;;;;;;;4.20;1.30;;;19.30;81.20;;;;;;5097202;28;20211;-84
2022/07/01 01:27:42;;;;;;;3.53;1.38;;;19.20;80.20;;;;;;5098394;28;20198;-84
2022/07/01 01:30:11;;;;;;;2.35;1.42;;;19.20;80.50;;;;;;5097924;28;20188;-84
2022/07/01 01:32:40;;;;;;;1.50;1.40;;;19.20;80.80;;;;;;5094674;28;20192;-85
2022/07/01 01:35:08;;;;;;;6.13;1.60;;;19.10;81.80;;;;;;5096601;28;20239;-84
2022/07/01 01:37:37;;;;;;;1.60;1.50;;;19.20;80.40;;;;;;5093088;28;20270;-85
2022/07/01 01:40:07;;;;;;;1.40;1.30;;;19.20;83.40;;;;;;5094957;28;20184;-84
2022/07/01 01:42:35;;;;;;;4.53;1.23;;;19.10;81.90;;;;;;5095138;28;20256;-85
2022/07/01 01:45:13;;;;;;;4.55;1.20;;;19.10;82.00;;;;;;5092611;28;20204;-84
2022/07/01 01:47:43;;;;;;;1.38;1.20;;;19.00;82.70;;;;;;5093256;28;20192;-84
2022/07/01 01:50:25;;;;;;;1.27;1.08;;;19.00;83.20;;;;;;5098376;28;20200;-84
2022/07/01 01:53:02;;;;;;;1.85;1.33;;;19.00;84.10;;;;;;5095834;28;20226;-84
2022/07/01 01:55:32;;;;;;;2.17;1.30;;;18.90;84.80;;;;;;5096621;28;20203;-84
2022/07/01 01:57:59;;;;;;;2.45;1.40;;;18.90;86.30;;;;;;5093743;28;20201;-84
2022/07/01 02:00:26;;;;;;;1.50;1.17;;;18.70;86.90;;;;;;5092944;28;20305;-84
2022/07/01 02:03:07;;;;;;;1.30;1.08;;;18.70;89.10;;;;;;5093827;28;20668;-85
2022/07/01 02:05:50;;;;;;;3.55;1.42;;;18.60;89.90;;;;;;5093390;28;20192;-84
2022/07/01 02:08:25;;;;;;;1.55;1.30;;;18.50;90.00;;;;;;5094133;28;20203;-85
2022/07/01 02:10:53;;;;;;;3.17;1.10;;;18.40;90.40;;;;;;5093183;28;20660;-84
2022/07/01 02:13:26;;;;;;;2.38;1.13;;;18.40;90.70;;;;;;5088582;28;20205;-84
2022/07/01 02:15:52;;;;;;;2.45;0.90;;;18.40;90.90;;;;;;5091378;28;20189;-84
2022/07/01 02:18:32;;;;;;;1.00;1.00;;;18.30;91.10;;;;;;5097275;28;20197;-84
2022/07/01 02:20:59;;;;;;;1.30;1.20;;;18.40;91.20;;;;;;5094729;28;20188;-84
2022/07/01 02:23:31;;;;;;;4.15;1.30;;;18.50;91.20;;;;;;5097991;28;20299;-84
2022/07/01 02:26:00;;;;;;;2.30;1.23;;;18.50;91.00;;;;;;5093025;28;20196;-84
2022/07/01 02:28:26;;;;;;;1.38;1.10;;;18.50;91.10;;;;;;5098300;28;20196;-84
2022/07/01 02:30:54;;;;;;;1.25;1.13;;;18.50;91.10;;;;;;5097568;28;20276;-85
2022/07/01 02:33:25;;;;;;;2.75;1.10;;;18.50;91.40;;;;;;5092931;28;20208;-84
2022/07/01 02:36:01;;;;;;;1.30;1.20;;;18.50;91.40;;;;;;5082703;28;20219;-84
2022/07/01 02:38:31;;;;;;;1.55;1.45;;;18.50;91.40;;;;;;5095576;28;20200;-84
2022/07/01 02:41:03;;;;;;;3.13;1.25;;;18.50;91.40;;;;;;5088672;28;20232;-84
2022/07/01 02:43:30;;;;;;;2.85;1.33;;;18.50;91.20;;;;;;5101772;28;20218;-84
2022/07/01 02:46:01;;;;;;;1.27;1.17;;;18.50;91.40;;;;;;5090449;28;20207;-84
2022/07/01 02:48:31;;;;;;;2.13;1.30;;;18.50;92.10;;;;;;5103168;28;20276;-84
2022/07/01 02:51:01;;;;;;;1.27;1.00;;;18.50;91.90;;;;;;5098001;28;20192;-84
2022/07/01 02:53:31;;;;;;;1.58;1.40;;;18.50;91.70;;;;;;5085718;28;20652;-84
2022/07/01 02:56:09;;;;;;;2.53;1.00;;;18.50;92.20;;;;;;5096738;28;20193;-84
2022/07/01 02:58:43;;;;;;;3.67;1.25;;;18.50;91.50;;;;;;5102827;28;20195;-84
2022/07/01 03:01:13;;;;;;;1.30;1.20;;;18.50;91.50;;;;;;5089070;28;20203;-84
2022/07/01 03:03:40;;;;;;;2.80;1.33;;;18.50;91.60;;;;;;5096652;28;20301;-84
2022/07/01 03:06:07;;;;;;;1.20;1.13;;;18.50;91.60;;;;;;5093550;28;20196;-84
2022/07/01 03:08:34;;;;;;;1.38;1.27;;;18.50;91.80;;;;;;5096045;28;20193;-84
2022/07/01 03:11:01;;;;;;;3.28;1.30;;;18.50;91.70;;;;;;5095271;28;20211;-84
2022/07/01 03:13:33;;;;;;;1.40;1.10;;;18.50;92.00;;;;;;5098393;28;20630;-84
2022/07/01 03:16:07;;;;;;;1.08;1.05;;;18.50;91.60;;;;;;5100758;28;20205;-84
2022/07/01 03:18:37;;;;;;;1.45;1.15;;;18.60;91.40;;;;;;5095348;28;20693;-84
2022/07/01 03:21:13;;;;;;;1.25;1.08;;;18.70;91.10;;;;;;5088352;28;20616;-84
2022/07/01 03:23:41;;;;;;;1.73;1.33;;;18.70;91.50;;;;;;5093324;28;20219;-84
2022/07/01 03:26:19;;;;;;;2.58;1.10;;;18.70;91.30;;;;;;5096827;28;20203;-84
2022/07/01 03:28:51;;;;;;;3.47;1.40;;;18.70;90.90;;;;;;5095832;28;20202;-84
2022/07/01 03:31:18;;;;;;;1.10;1.00;;;18.80;90.30;;;;;;5096446;28;20203;-84
2022/07/01 03:33:44;;;;;;;1.10;1.10;;;18.70;90.80;;;;;;5093022;28;20212;-84
2022/07/01 03:36:19;;;;;;;1.27;1.17;;;18.70;90.60;;;;;;5097613;28;20199;-84
2022/07/01 03:38:46;;;;;;;2.70;1.27;;;18.70;90.80;;;;;;5085890;28;20265;-84
2022/07/01 03:41:13;;;;;;;1.42;1.15;;;18.70;90.90;;;;;;5096400;28;20218;-84
2022/07/01 03:44:08;;;;;;;1.85;1.30;;;18.60;91.40;;;;;;5095222;28;20208;-84
2022/07/01 03:46:37;;;;;;;1.35;1.13;;;18.60;91.40;;;;;;5094836;28;20200;-84
2022/07/01 03:49:08;;;;;;;1.40;1.30;;;18.60;91.50;;;;;;5098113;28;20636;-84
2022/07/01 03:51:50;;;;;;;1.42;1.15;;;18.60;91.40;;;;;;5095238;28;20191;-84
2022/07/01 03:54:32;;;;;;;1.33;1.23;;;18.60;91.20;;;;;;5092404;28;20225;-84
2022/07/01 03:57:00;;;;;;;1.02;1.00;;;18.70;90.80;;;;;;5097197;28;20192;-84
2022/07/01 03:59:35;;;;;;;1.40;1.10;;;18.70;90.90;;;;;;5093894;28;20197;-84
2022/07/01 04:02:08;;;;;;;0.98;0.98;;;18.80;91.00;;;;;;5095793;28;20203;-84
2022/07/01 04:04:43;;;;;;;2.25;1.33;;;18.80;90.80;;;;;;5095158;28;20192;-84
2022/07/01 04:07:13;;;;;;;1.20;1.10;;;18.80;91.20;;;;;;5098020;28;20204;-84
2022/07/01 04:09:44;;;;;;;1.42;1.30;;;18.90;90.50;;;;;;5099444;28;20212;-84
2022/07/01 04:12:12;;;;;;;1.20;1.10;;;18.80;90.60;;;;;;5095879;28;20197;-84
2022/07/01 04:15:03;;;;;;;1.40;1.30;;;18.80;91.40;;;;;;5096872;28;20675;-84
2022/07/01 04:17:32;;;;;;;1.20;1.10;;;18.80;91.20;;;;;;5101025;28;20200;-84
2022/07/01 04:19:59;;;;;;;1.27;1.20;;;18.80;91.10;;;;;;5106889;28;20188;-84
2022/07/01 04:22:35;;;;;;;1.85;1.08;;;18.80;91.30;;;;;;5099088;28;20200;-84
2022/07/01 04:25:37;;;;;;;2.45;1.23;;;18.80;91.60;;;;;;5088453;28;20667;-84
2022/07/01 04:28:04;;;;;;;1.73;1.30;;;18.90;91.20;;;;;;5102865;28;20220;-84
2022/07/01 04:30:56;;;;;;;1.13;1.13;;;18.90;91.30;;;;;;5099103;28;20198;-84
2022/07/01 04:33:23;;;;;;;1.98;1.45;;;18.70;91.60;;;;;;5087330;28;20208;-85
2022/07/01 04:35:55;;;;;;;1.80;1.60;;;18.70;91.90;;;;;;5094158;28;20185;-84
2022/07/01 04:38:25;;;;;;;1.65;1.52;;;18.80;91.20;;;;;;5093298;28;20547;-84
2022/07/01 04:44:02;;;;;;;2.28;1.30;;;18.90;90.70;;;;;;5098687;28;20218;-85
2022/07/01 04:46:33;;;;;;;2.30;1.23;;;19.00;90.50;;;;;;5099820;28;20203;-85
2022/07/01 04:49:08;;;;;;;1.63;1.20;;;19.00;90.50;;;;;;5095699;28;20228;-85
2022/07/01 04:51:55;;;;;;;1.40;1.30;;;18.90;91.10;;;;;;5090655;28;20200;-84
2022/07/01 04:54:31;;;;;;;1.50;1.40;;;18.80;91.50;;;;;;5086445;28;20228;-86
2022/07/01 04:57:01;;;;;;;1.67;1.35;;;19.00;91.40;;;;;;5091761;28;20196;-87
2022/07/01 04:59:43;;;;;;;2.33;1.58;;;19.00;91.60;;;;;;5099652;28;20548;-86
2022/07/01 05:02:15;;;;;;;1.70;1.60;;;19.00;91.40;;;;;;5096168;28;20253;-85
2022/07/01 05:04:43;;;;;;;1.75;1.20;;;18.90;91.00;;;;;;5094446;28;20656;-84
2022/07/01 05:07:27;;;;;;;1.63;1.50;;;18.90;91.10;;;;;;5095911;28;20210;-83
2022/07/01 05:09:56;;;;;;;1.50;1.40;;;18.90;90.80;;;;;;5092621;28;20557;-83
2022/07/01 05:12:26;;;;;;;1.40;1.30;;;18.90;90.40;;;;;;5096252;28;20185;-83
2022/07/01 05:15:09;;;;;;;1.30;1.17;;;19.10;90.10;;;;;;5097078;28;20217;-83
2022/07/01 05:23:19;;;;;;;1.23;1.13;;;19.70;84.60;;;;;;5087193;28;20207;-85
2022/07/01 05:25:49;;;;;;;1.85;1.50;;;19.70;83.70;;;;;;5093545;28;20212;-82
2022/07/01 05:28:16;;;;;;;1.35;1.25;;;19.60;87.20;;;;;;5097741;28;20203;-84
2022/07/01 05:30:43;;;;;;;1.50;1.40;;;19.60;88.60;;;;;;5091836;28;20287;-83
2022/07/01 05:33:27;;;;;;;1.52;1.42;;;19.70;87.80;;;;;;5084597;28;20197;-83
2022/07/01 05:35:55;;;;;;;1.50;1.40;;;19.60;85.20;;;;;;5087133;28;20208;-83
2022/07/01 05:38:25;;;;;;;5.68;1.50;;;19.70;86.10;;;;;;5094410;28;20204;-83
2022/07/01 05:41:01;;;;;;;4.50;1.90;;;19.80;83.60;;;;;;5094889;28;20699;-83
2022/07/01 05:43:32;;;;;;;2.33;1.42;;;19.90;82.70;;;;;;5095003;28;20204;-83
2022/07/01 05:46:07;;;;;;;1.50;1.40;;;20.00;80.90;;;;;;5095158;28;20196;-83
2022/07/01 05:48:39;;;;;;;2.15;1.50;;;20.00;80.90;;;;;;5095265;28;20673;-83
2022/07/01 05:51:07;;;;;;;3.08;1.30;;;20.00;80.80;;;;;;5095969;28;20205;-83
2022/07/01 05:53:38;;;;;;;3.08;1.52;;;19.90;82.40;;;;;;5095087;28;20735;-83
2022/07/01 05:56:05;;;;;;;1.40;1.30;;;19.80;83.90;;;;;;5087816;28;20255;-83
2022/07/01 05:58:32;;;;;;;2.35;1.42;;;19.80;83.10;;;;;;5095802;28;20207;-83
2022/07/01 06:00:59;;;;;;;3.35;1.40;;;19.80;80.70;;;;;;5090120;28;20211;-83
2022/07/01 06:03:26;;;;;;;1.95;1.30;;;19.80;81.60;;;;;;5094001;28;20288;-83
2022/07/01 06:05:54;;;;;;;2.25;1.40;;;19.90;80.80;;;;;;5094352;28;20197;-83
2022/07/01 06:08:21;;;;;;;2.20;1.52;;;20.10;78.80;;;;;;5093832;28;20199;-83
2022/07/01 06:10:49;;;;;;;2.00;1.40;;;20.10;80.20;;;;;;5090226;28;20606;-84
2022/07/01 06:13:16;;;;;;;1.83;1.40;;;20.20;79.50;;;;;;5086683;28;20200;-85
2022/07/01 06:15:43;;;;;;;4.32;1.50;;;20.20;80.00;;;;;;5089331;28;20209;-85
2022/07/01 06:18:10;;;;;;;1.50;1.40;;;20.50;77.00;;;;;;5088739;28;20201;-85
2022/07/01 06:20:37;;;;;;;1.50;1.40;;;20.70;77.50;;;;;;5099177;28;20189;-84
2022/07/01 06:23:06;;;;;;;1.17;1.17;;;20.80;76.30;;;;;;5103677;28;20640;-85
2022/07/01 06:25:37;;;;;;;3.53;1.45;;;21.30;71.00;;;;;;5091015;28;20240;-84
2022/07/01 06:28:31;;;;;;;3.47;1.40;;;21.50;68.70;;;;;;5094760;28;20192;-84
2022/07/01 06:31:01;;;;;;;1.48;1.38;;;21.30;62.60;;;;;;5100235;28;20193;-85
2022/07/01 06:33:43;;;;;;;2.53;1.10;;;21.30;63.80;;;;;;5097306;28;20203;-85
2022/07/01 06:36:43;;;;;;;2.67;1.50;;;21.40;63.60;;;;;;5093869;28;20208;-86
2022/07/01 06:39:21;;;;;;;3.67;1.20;;;21.20;64.80;;;;;;5088625;28;20192;-85
2022/07/01 06:42:25;;;;;;;5.32;1.40;;;20.80;69.80;;;;;;5086513;28;20221;-85
2022/07/01 06:44:55;;;;;;;3.10;1.30;;;20.70;72.70;;;;;;5094873;28;20195;-84
2022/07/01 06:47:37;;;;;;;1.50;1.40;;;20.60;75.30;;;;;;5085723;28;20203;-85
2022/07/01 06:50:08;;;;;;;1.60;1.50;;;20.40;74.70;;;;;;5088589;28;20670;-84
2022/07/01 06:52:35;;;;;;;2.00;1.23;;;20.20;76.70;;;;;;5081951;28;20200;-84
2022/07/01 06:55:27;;;;;;;1.90;1.40;;;20.10;77.50;;;;;;5083295;28;21005;-84
2022/07/01 06:57:54;;;;;;;2.17;1.60;;;19.90;77.70;;;;;;5080106;28;20206;-84
2022/07/01 07:00:26;;;;;;;2.55;1.45;;;19.70;78.80;;;;;;5097151;28;20280;-84
2022/07/01 07:03:01;;;;;;;2.13;1.50;;;19.60;80.10;;;;;;5098731;28;20196;-84
2022/07/01 07:05:44;;;;;;;3.70;1.40;;;19.70;80.60;;;;;;5098161;28;20192;-84
2022/07/01 07:08:11;;;;;;;2.58;1.55;;;19.70;80.60;;;;;;5097901;28;20205;-85
2022/07/01 07:10:39;;;;;;;3.90;1.40;;;19.50;80.50;;;;;;5092752;28;20207;-84
2022/07/01 07:13:06;;;;;;;2.00;1.27;;;19.50;80.50;;;;;;5097434;28;20210;-84
2022/07/01 07:15:33;;;;;;;1.40;1.27;;;19.50;80.50;;;;;;5096519;28;20218;-84
2022/07/01 07:18:02;;;;;;;2.70;1.40;;;19.50;80.50;;;;;;5098486;28;20219;-83
2022/07/01 07:20:37;;;;;;;1.60;1.38;;;19.70;80.60;;;;;;5099264;28;20670;-83
2022/07/01 07:23:05;;;;;;;2.58;1.50;;;20.00;79.60;;;;;;5098975;28;20192;-83
2022/07/01 07:25:51;;;;;;;1.33;1.20;;;19.90;78.20;;;;;;5096301;28;20678;-84
2022/07/01 07:28:19;;;;;;;1.75;1.40;;;20.20;75.70;;;;;;5086200;28;20219;-84
2022/07/01 07:30:49;;;;;;;2.13;1.42;;;20.40;75.50;;;;;;5095828;28;20564;-84
2022/07/01 07:33:19;;;;;;;3.55;1.30;;;20.60;74.60;;;;;;5083825;28;20568;-84
2022/07/01 07:35:49;;;;;;;1.70;1.33;;;20.60;73.20;;;;;;5094053;28;20204;-84
2022/07/01 07:38:31;;;;;;;1.80;1.60;;;20.60;72.50;;;;;;5085788;28;20233;-84
2022/07/01 07:41:27;;;;;;;1.40;1.30;;;20.50;75.00;;;;;;5088991;28;20235;-84
2022/07/01 07:44:02;;;;;;;1.70;1.60;;;20.50;77.00;;;;;;5090556;28;20666;-84
2022/07/01 07:46:56;;;;;;;1.60;1.50;;;20.40;76.60;;;;;;5082192;28;20206;-85
2022/07/01 07:49:23;;;;;;;2.58;1.90;;;20.30;77.40;;;;;;5087221;28;20223;-84
2022/07/01 07:51:56;;;;;;;4.70;1.85;;;20.00;79.80;;;;;;5097052;28;20203;-85
2022/07/01 07:54:26;;;;;;;2.25;2.05;;;19.90;80.80;;;;;;5099075;28;20199;-84
2022/07/01 07:56:54;;;;;;;2.58;2.10;;;19.70;82.40;;;;;;5102045;28;20287;-83
2022/07/01 07:59:20;;;;;;;3.75;2.30;;;19.50;82.80;;;;;;5105008;28;20202;-83
2022/07/01 08:01:49;;;;;;;5.55;2.22;;;19.40;84.90;;;;;;5100616;28;20192;-83
2022/07/01 08:04:20;;;;;;;2.78;2.45;;;19.20;85.90;;;;;;5097687;28;20193;-84
2022/07/01 08:06:56;;;;;;;5.88;2.90;;;19.20;88.10;;;;;;5098706;28;20200;-84
2022/07/01 08:09:26;;;;;;;5.07;2.95;;;19.20;86.90;;;;;;5090046;28;20204;-84
2022/07/01 08:11:57;;;;;;;3.22;2.92;;;19.10;86.70;;;;;;5095529;28;20203;-84
2022/07/01 08:14:38;;;;;;;3.42;2.90;;;19.10;88.30;;;;;;5096168;28;20204;-84
2022/07/01 08:17:05;;;;;;;4.57;2.70;;;19.10;87.30;;;;;;5096970;28;20219;-84
2022/07/01 08:19:38;;;;;;;3.20;2.90;;;18.90;88.80;;;;;;5101677;28;20203;-84
2022/07/01 08:22:05;;;;;;;3.83;3.25;;;18.70;88.10;;;;;;5100812;28;20203;-84
2022/07/01 08:24:38;;;;;;;10.88;5.88;;;18.60;90.00;;;;;;5103089;28;20196;-83
2022/07/01 08:27:06;;;;;;;20.10;4.90;;;18.40;90.60;;;;;;5102773;28;20193;-84
2022/07/01 08:29:44;;;;;;;22.73;6.75;;;18.10;89.50;;;;;;5105815;28;20652;-83
2022/07/01 08:32:11;;;;;;;4.07;1.20;;;17.60;90.00;;;;;;5104645;28;20207;-90
2022/07/01 08:34:56;;;;;;;1.33;1.23;;;17.30;88.30;;;;;;5092301;28;20616;-89
2022/07/01 08:37:32;;;;;;;3.78;1.23;;;16.70;86.30;;;;;;5084590;28;20192;-88
2022/07/01 08:39:59;;;;;;;1.30;1.10;;;16.30;90.10;;;;;;5087596;28;20197;-86
2022/07/01 08:42:33;;;;;;;5.95;1.15;;;16.20;91.70;;;;;;5095287;28;20243;-88
2022/07/01 08:45:02;;;;;;;1.70;1.60;;;16.00;93.00;;;;;;5093420;28;20191;-87
2022/07/01 08:47:29;;;;;;;4.07;1.35;;;15.90;93.20;;;;;;5091756;28;20267;-87
2022/07/01 08:49:56;;;;;;;3.65;1.42;;;15.70;93.20;;;;;;5088373;28;20755;-86
2022/07/01 08:52:23;;;;;;;2.53;1.25;;;15.50;93.70;;;;;;5099527;28;20197;-86
2022/07/01 08:55:08;;;;;;;2.22;1.50;;;15.40;93.80;;;;;;5087304;28;20195;-87
2022/07/01 08:57:57;;;;;;;1.42;1.17;;;15.60;94.10;;;;;;5092107;28;20200;-86
2022/07/01 09:00:30;;;;;;;2.00;1.30;;;15.60;93.60;;;;;;5096540;28;20197;-86
2022/07/01 09:03:03;;;;;;;2.70;1.45;;;15.70;94.10;;;;;;5098384;28;20201;-86
2022/07/01 09:05:32;;;;;;;2.35;1.23;;;15.50;94.70;;;;;;5097165;28;20279;-86
2022/07/01 09:08:04;;;;;;;1.38;1.20;;;15.50;93.90;;;;;;5086508;28;20195;-87
2022/07/01 09:10:38;;;;;;;1.48;1.27;;;15.70;93.20;;;;;;5091565;28;20685;-86
2022/07/01 09:13:15;;;;;;;3.03;1.00;;;15.80;93.10;;;;;;5099958;28;20204;-86
2022/07/01 09:15:42;;;;;;;1.15;1.05;;;16.00;92.30;;;;;;5090344;28;20220;-86
2022/07/01 09:18:12;;;;;;;2.05;1.10;;;16.10;91.50;;;;;;5105355;28;20283;-87
2022/07/01 09:21:01;;;;;;;2.88;1.20;;;16.00;91.30;;;;;;5084045;28;20200;-86
2022/07/01 09:23:32;;;;;;;5.70;1.30;;;15.90;91.00;;;;;;5089486;28;20648;-87
2022/07/01 09:25:59;;;;;;;1.98;1.02;;;15.90;91.70;;;;;;5083723;28;20691;-88
2022/07/01 09:28:33;;;;;;;2.75;1.00;;;15.90;91.30;;;;;;5087349;28;20644;-88
2022/07/01 09:31:02;;;;;;;2.08;1.02;;;16.00;90.80;;;;;;5077728;28;20221;-87
2022/07/01 09:33:30;;;;;;;0.93;0.93;;;16.00;90.50;;;;;;5097414;28;20195;-87
2022/07/01 09:36:44;;;;;;;2.40;1.20;;;16.00;91.00;;;;;;5087719;28;20220;-88
2022/07/01 09:39:55;;;;;;;1.20;1.10;;;16.00;91.20;;;;;;5093709;28;20193;-87
2022/07/01 09:43:01;;;;;;;1.33;1.20;;;16.00;91.70;;;;;;5086555;28;20225;-87
2022/07/01 09:45:35;;;;;;;1.27;1.05;;;15.90;91.70;;;;;;5092617;28;20210;-88
2022/07/01 09:48:08;;;;;;;4.18;1.13;;;15.90;92.00;;;;;;5088937;28;20226;-87
2022/07/01 09:50:36;;;;;;;0.90;0.90;;;16.10;92.40;;;;;;5092575;28;20203;-88
2022/07/01 09:53:08;;;;;;;2.38;1.10;;;16.10;92.70;;;;;;5094756;28;20258;-87
2022/07/01 09:55:50;;;;;;;2.67;1.10;;;16.20;92.80;;;;;;5094140;28;20208;-87
2022/07/01 09:58:26;;;;;;;1.00;1.00;;;16.20;93.00;;;;;;5093784;28;20204;-87
2022/07/01 10:01:04;;;;;;;0.88;0.88;;;16.50;92.20;;;;;;5090877;28;20590;-86
2022/07/01 10:03:44;;;;;;;1.10;1.00;;;16.50;91.00;;;;;;5082581;28;20201;-86
2022/07/01 10:06:38;;;;;;;1.13;0.90;;;16.50;91.30;;;;;;5090963;28;20200;-86
2022/07/01 10:09:22;;;;;;;1.02;0.93;;;16.40;91.80;;;;;;5089884;28;20644;-87
2022/07/01 10:12:31;;;;;;;1.13;0.95;;;16.50;91.80;;;;;;5093714;28;20196;-86
2022/07/01 10:15:06;;;;;;;1.17;0.80;;;16.30;91.80;;;;;;5089063;28;20186;-88
2022/07/01 10:17:57;;;;;;;1.77;1.00;;;16.40;91.80;;;;;;5084921;28;20215;-88
2022/07/01 10:20:26;;;;;;;1.23;1.00;;;16.30;91.80;;;;;;5081940;28;20603;-88
2022/07/01 10:23:02;;;;;;;0.80;0.80;;;16.30;92.40;;;;;;5098773;28;20197;-88
2022/07/01 10:26:03;;;;;;;2.17;1.10;;;16.40;91.50;;;;;;5090329;28;20201;-88
2022/07/01 10:28:43;;;;;;;1.63;1.00;;;16.40;91.80;;;;;;5097646;28;20200;-88
2022/07/01 10:31:15;;;;;;;1.60;1.00;;;16.30;91.80;;;;;;5094482;28;20224;-85
2022/07/01 10:33:55;;;;;;;1.15;1.05;;;16.50;91.80;;;;;;5094203;28;20236;-89
2022/07/01 10:36:31;;;;;;;2.55;1.00;;;16.50;91.80;;;;;;5096494;28;20231;-88
2022/07/01 10:39:17;;;;;;;1.35;1.15;;;16.60;91.80;;;;;;5097478;28;20275;-88
2022/07/01 10:42:05;;;;;;;2.40;1.05;;;16.70;91.90;;;;;;5095121;28;20213;-87
2022/07/01 10:45:06;;;;;;;1.33;1.20;;;16.80;91.90;;;;;;5096307;28;20212;-87
2022/07/01 10:47:34;;;;;;;1.48;1.30;;;16.80;91.60;;;;;;5055237;28;20212;-89
2022/07/01 10:50:21;;;;;;;1.50;1.40;;;16.70;91.90;;;;;;5048121;28;20672;-87
2022/07/01 10:52:59;;;;;;;1.77;1.20;;;16.70;91.90;;;;;;5048646;28;20198;-86
2022/07/01 10:55:48;;;;;;;1.40;1.30;;;16.60;91.80;;;;;;5058098;28;20219;-87
2022/07/01 10:58:37;;;;;;;1.45;0.98;;;16.60;91.60;;;;;;5054942;28;20200;-86
2022/07/01 11:01:08;;;;;;;1.30;1.20;;;16.70;91.90;;;;;;5037950;28;20210;-90
2022/07/01 11:03:39;;;;;;;1.50;1.00;;;16.70;91.90;;;;;;5056882;28;20190;-88
2022/07/01 11:06:08;;;;;;;1.67;1.20;;;16.50;91.50;;;;;;5052460;28;20289;-88
2022/07/01 11:08:38;;;;;;;3.20;1.30;;;16.50;91.80;;;;;;5045710;28;20216;-86
2022/07/01 11:11:14;;;;;;;1.25;1.05;;;16.50;92.30;;;;;;5053523;28;20591;-90
2022/07/01 11:13:44;;;;;;;3.25;1.30;;;16.80;91.90;;;;;;5041488;28;20212;-90
2022/07/01 11:16:16;;;;;;;2.55;1.17;;;16.90;90.30;;;;;;5049752;28;20218;-89
2022/07/01 11:18:43;;;;;;;2.70;1.20;;;16.80;90.40;;;;;;5048697;28;20226;-89
2022/07/01 11:21:15;;;;;;;1.77;1.30;;;16.70;90.50;;;;;;5065712;28;20201;-85
2022/07/01 11:23:54;;;;;;;0.98;0.98;;;16.80;91.10;;;;;;5096869;28;20211;-85
2022/07/01 11:26:25;;;;;;;1.60;1.00;;;16.80;91.00;;;;;;5094471;28;20252;-85
2022/07/01 11:28:56;;;;;;;1.58;1.30;;;16.90;90.60;;;;;;5096745;28;20267;-86
2022/07/01 11:31:33;;;;;;;1.38;1.00;;;16.80;90.90;;;;;;5095353;28;20197;-85
2022/07/01 11:40:32;;;;;;;2.63;1.23;;;16.70;91.00;;;;;;5088675;28;20239;-85
2022/07/01 11:43:02;;;;;;;1.33;1.23;;;16.70;90.90;;;;;;5101983;28;20196;-86
2022/07/01 11:45:29;;;;;;;2.17;1.20;;;16.80;90.40;;;;;;5092532;28;20205;-86
2022/07/01 11:48:29;;;;;;;1.98;1.30;;;16.60;91.90;;;;;;5089989;28;20197;-86
2022/07/01 11:51:11;;;;;;;2.55;1.20;;;16.40;91.80;;;;;;5084002;28;20193;-87
2022/07/01 11:53:41;;;;;;;1.30;1.20;;;16.30;92.50;;;;;;5090949;28;20192;-86
2022/07/01 11:56:08;;;;;;;1.50;1.30;;;16.50;92.10;;;;;;5098834;28;20216;-86
2022/07/01 11:58:42;;;;;;;3.15;1.38;;;16.60;91.80;;;;;;5089625;28;20203;-86
2022/07/01 12:01:25;;;;;;;2.40;1.40;;;16.70;91.90;;;;;;5089888;28;20184;-87
2022/07/01 12:03:53;;;;;;;1.58;1.48;;;16.40;92.60;;;;;;5093446;28;20200;-87
2022/07/01 12:06:23;;;;;;;2.08;1.30;;;16.20;93.60;;;;;;5088084;28;20645;-87
2022/07/01 12:08:53;;;;;;;5.22;1.90;;;16.00;93.80;;;;;;5095840;28;20210;-87
2022/07/01 12:11:44;;;;;;;4.22;1.60;;;15.90;94.10;;;;;;5090224;28;20189;-88
2022/07/01 12:14:21;;;;;;;1.67;1.58;;;16.10;94.40;;;;;;5094042;28;20205;-87
2022/07/01 12:16:58;;;;;;;2.38;1.73;;;16.30;93.90;;;;;;5088921;28;20217;-88
2022/07/01 12:19:29;;;;;;;2.95;1.70;;;16.70;93.90;;;;;;5090831;28;20196;-87
2022/07/01 12:21:58;;;;;;;2.08;1.60;;;16.80;93.30;;;;;;5094097;28;20205;-90
2022/07/01 12:24:26;;;;;;;2.17;1.42;;;17.00;91.90;;;;;;5098060;28;20186;-88
2022/07/01 12:27:03;;;;;;;1.55;1.40;;;16.90;92.50;;;;;;5097547;28;20197;-87
2022/07/01 12:29:54;;;;;;;2.20;1.70;;;16.80;92.20;;;;;;5095233;28;20196;-87
2022/07/01 12:32:35;;;;;;;2.67;1.38;;;16.70;92.80;;;;;;5087106;28;20197;-88
2022/07/01 12:35:04;;;;;;;3.67;1.63;;;16.70;93.00;;;;;;5093570;28;20200;-87
2022/07/01 12:37:34;;;;;;;1.40;1.20;;;16.70;93.00;;;;;;5093792;28;20224;-87
2022/07/01 12:40:08;;;;;;;1.60;1.42;;;16.80;92.50;;;;;;5103178;28;20204;-89
2022/07/01 12:43:07;;;;;;;1.30;1.20;;;16.80;91.90;;;;;;5101915;28;20217;-86
2022/07/01 12:45:50;;;;;;;1.80;1.48;;;16.70;91.90;;;;;;5102202;28;20207;-85
2022/07/01 12:49:01;;;;;;;1.90;1.55;;;16.70;92.30;;;;;;5098993;28;20640;-86
2022/07/01 12:51:38;;;;;;;2.13;1.60;;;16.70;92.50;;;;;;5100897;28;20276;-87
2022/07/01 12:54:38;;;;;;;3.00;1.73;;;16.60;92.20;;;;;;5091668;28;20204;-87
2022/07/01 12:57:06;;;;;;;1.60;1.50;;;16.40;93.20;;;;;;5066304;28;20260;-87
2022/07/01 12:59:50;;;;;;;1.58;1.48;;;16.30;93.80;;;;;;5104560;28;20196;-87
2022/07/01 13:03:01;;;;;;;2.88;1.70;;;16.20;94.10;;;;;;5104849;28;20192;-87
2022/07/01 13:06:13;;;;;;;1.92;1.70;;;16.10;94.00;;;;;;5101152;28;20292;-87
2022/07/01 13:08:51;;;;;;;2.03;1.73;;;15.90;94.00;;;;;;5094447;28;20652;-87
2022/07/01 13:11:56;;;;;;;4.90;2.50;;;15.90;94.40;;;;;;5099298;28;20262;-88
2022/07/01 13:17:52;;;;;;;2.42;2.03;;;15.60;94.70;;;;;;5095740;28;20260;-90
2022/07/01 13:20:55;;;;;;;2.40;2.10;;;15.70;95.40;;;;;;5106773;28;20752;-90
2022/07/01 13:23:22;;;;;;;2.20;2.00;;;15.60;95.50;;;;;;5090918;28;20625;-90
2022/07/01 13:25:50;;;;;;;2.35;2.15;;;15.60;96.70;;;;;;5097452;28;20199;-89
2022/07/01 13:28:20;;;;;;;2.30;2.10;;;15.60;96.70;;;;;;5108007;28;20292;-90
2022/07/01 13:31:02;;;;;;;2.47;2.28;;;15.80;97.10;;;;;;5099188;28;20212;-89
2022/07/01 13:36:52;;;;;;;2.30;2.10;;;15.70;97.50;;;;;;5095370;28;20243;-89
2022/07/01 13:42:42;;;;;;;3.92;2.20;;;15.90;96.30;;;;;;5104454;28;20286;-90
2022/07/01 13:45:31;;;;;;;2.58;2.38;;;16.00;96.40;;;;;;5090780;28;20208;-89
2022/07/01 13:48:28;;;;;;;2.40;2.20;;;15.90;96.30;;;;;;5106988;28;20550;-90
2022/07/01 13:51:19;;;;;;;2.45;2.00;;;15.80;97.10;;;;;;5095998;28;20214;-89